sensor_id;sensor_type;location;lat;lon;timestamp;P1;durP1;ratioP1;P2;durP2;ratioP2
44000;SDS011;29660;42.892;24.710;2023-09-07T00:04:09;16.20;;;10.13;;
44000;SDS011;29660;42.892;24.710;2023-09-07T00:09:32;12.55;;;10.25;;
44000;SDS011;29660;42.892;24.710;2023-09-07T00:14:54;16.30;;;10.10;;
44000;SDS011;29660;42.892;24.710;2023-09-07T00:20:17;13.50;;;8.90;;
44000;SDS011;29660;42.892;24.710;2023-09-07T00:25:41;11.45;;;8.85;;
44000;SDS011;29660;42.892;24.710;2023-09-07T00:31:03;9.77;;;8.75;;
44000;SDS011;29660;42.892;24.710;2023-09-07T00:36:25;11.43;;;8.75;;
44000;SDS011;29660;42.892;24.710;2023-09-07T00:41:47;14.55;;;8.38;;
44000;SDS011;29660;42.892;24.710;2023-09-07T00:47:09;15.23;;;8.20;;
44000;SDS011;29660;42.892;24.710;2023-09-07T00:52:34;15.30;;;8.25;;
44000;SDS011;29660;42.892;24.710;2023-09-07T00:57:57;12.77;;;8.48;;
44000;SDS011;29660;42.892;24.710;2023-09-07T01:03:20;12.77;;;9.30;;
44000;SDS011;29660;42.892;24.710;2023-09-07T01:08:43;13.18;;;8.48;;
44000;SDS011;29660;42.892;24.710;2023-09-07T01:14:08;11.45;;;8.40;;
44000;SDS011;29660;42.892;24.710;2023-09-07T01:19:30;13.40;;;7.72;;
44000;SDS011;29660;42.892;24.710;2023-09-07T01:24:53;11.38;;;7.47;;
44000;SDS011;29660;42.892;24.710;2023-09-07T01:30:17;16.02;;;8.25;;
44000;SDS011;29660;42.892;24.710;2023-09-07T01:35:40;11.32;;;7.95;;
44000;SDS011;29660;42.892;24.710;2023-09-07T01:41:03;12.60;;;7.75;;
44000;SDS011;29660;42.892;24.710;2023-09-07T01:46:25;15.10;;;7.63;;
44000;SDS011;29660;42.892;24.710;2023-09-07T01:51:50;16.90;;;7.75;;
44000;SDS011;29660;42.892;24.710;2023-09-07T01:57:14;14.05;;;8.35;;
44000;SDS011;29660;42.892;24.710;2023-09-07T02:02:36;11.75;;;7.68;;
44000;SDS011;29660;42.892;24.710;2023-09-07T02:07:59;16.48;;;8.05;;
44000;SDS011;29660;42.892;24.710;2023-09-07T02:13:22;11.88;;;8.30;;
44000;SDS011;29660;42.892;24.710;2023-09-07T02:18:44;11.70;;;8.80;;
44000;SDS011;29660;42.892;24.710;2023-09-07T02:24:07;15.38;;;8.25;;
44000;SDS011;29660;42.892;24.710;2023-09-07T02:29:30;14.55;;;7.50;;
44000;SDS011;29660;42.892;24.710;2023-09-07T02:34:52;18.80;;;8.50;;
44000;SDS011;29660;42.892;24.710;2023-09-07T02:40:14;18.02;;;7.63;;
44000;SDS011;29660;42.892;24.710;2023-09-07T02:45:38;16.20;;;8.50;;
44000;SDS011;29660;42.892;24.710;2023-09-07T02:51:00;10.98;;;7.85;;
44000;SDS011;29660;42.892;24.710;2023-09-07T02:56:23;14.02;;;7.45;;
44000;SDS011;29660;42.892;24.710;2023-09-07T03:01:45;11.25;;;7.32;;
44000;SDS011;29660;42.892;24.710;2023-09-07T03:07:07;13.27;;;7.22;;
44000;SDS011;29660;42.892;24.710;2023-09-07T03:12:31;11.23;;;7.53;;
44000;SDS011;29660;42.892;24.710;2023-09-07T03:17:53;12.77;;;8.40;;
44000;SDS011;29660;42.892;24.710;2023-09-07T03:23:16;12.60;;;8.32;;
44000;SDS011;29660;42.892;24.710;2023-09-07T03:28:38;17.05;;;8.93;;
44000;SDS011;29660;42.892;24.710;2023-09-07T03:34:01;17.05;;;8.27;;
44000;SDS011;29660;42.892;24.710;2023-09-07T03:39:23;22.73;;;12.20;;
44000;SDS011;29660;42.892;24.710;2023-09-07T03:44:45;14.27;;;8.82;;
44000;SDS011;29660;42.892;24.710;2023-09-07T03:50:08;17.10;;;8.60;;
44000;SDS011;29660;42.892;24.710;2023-09-07T03:55:39;18.30;;;8.73;;
44000;SDS011;29660;42.892;24.710;2023-09-07T04:01:06;14.30;;;8.27;;
44000;SDS011;29660;42.892;24.710;2023-09-07T04:06:28;13.18;;;8.23;;
44000;SDS011;29660;42.892;24.710;2023-09-07T04:11:51;12.82;;;8.43;;
44000;SDS011;29660;42.892;24.710;2023-09-07T04:17:13;21.05;;;8.65;;
44000;SDS011;29660;42.892;24.710;2023-09-07T04:22:35;19.67;;;7.93;;
44000;SDS011;29660;42.892;24.710;2023-09-07T04:27:58;15.95;;;7.55;;
44000;SDS011;29660;42.892;24.710;2023-09-07T04:33:20;13.93;;;8.20;;
44000;SDS011;29660;42.892;24.710;2023-09-07T04:38:43;18.42;;;8.02;;
44000;SDS011;29660;42.892;24.710;2023-09-07T04:44:05;16.50;;;8.20;;
44000;SDS011;29660;42.892;24.710;2023-09-07T04:49:28;18.55;;;7.88;;
44000;SDS011;29660;42.892;24.710;2023-09-07T04:54:50;16.00;;;7.60;;
44000;SDS011;29660;42.892;24.710;2023-09-07T05:00:14;14.98;;;7.32;;
44000;SDS011;29660;42.892;24.710;2023-09-07T05:05:36;11.35;;;7.72;;
44000;SDS011;29660;42.892;24.710;2023-09-07T05:10:59;13.60;;;7.40;;
44000;SDS011;29660;42.892;24.710;2023-09-07T05:16:22;16.42;;;7.55;;
44000;SDS011;29660;42.892;24.710;2023-09-07T05:21:45;17.88;;;7.82;;
44000;SDS011;29660;42.892;24.710;2023-09-07T05:27:07;14.25;;;6.90;;
44000;SDS011;29660;42.892;24.710;2023-09-07T05:32:30;15.70;;;6.97;;
44000;SDS011;29660;42.892;24.710;2023-09-07T05:37:53;15.80;;;6.93;;
44000;SDS011;29660;42.892;24.710;2023-09-07T05:43:15;13.18;;;6.68;;
44000;SDS011;29660;42.892;24.710;2023-09-07T05:48:37;11.48;;;6.63;;
44000;SDS011;29660;42.892;24.710;2023-09-07T05:54:00;13.05;;;5.95;;
44000;SDS011;29660;42.892;24.710;2023-09-07T05:59:23;9.98;;;6.43;;
44000;SDS011;29660;42.892;24.710;2023-09-07T06:04:46;11.07;;;6.15;;
44000;SDS011;29660;42.892;24.710;2023-09-07T06:10:08;12.32;;;5.60;;
44000;SDS011;29660;42.892;24.710;2023-09-07T06:15:31;18.02;;;5.80;;
44000;SDS011;29660;42.892;24.710;2023-09-07T06:20:53;6.38;;;4.95;;
44000;SDS011;29660;42.892;24.710;2023-09-07T06:26:16;12.95;;;5.88;;
44000;SDS011;29660;42.892;24.710;2023-09-07T06:31:40;13.60;;;5.35;;
44000;SDS011;29660;42.892;24.710;2023-09-07T06:37:02;10.98;;;5.00;;
44000;SDS011;29660;42.892;24.710;2023-09-07T06:42:25;10.00;;;4.70;;
44000;SDS011;29660;42.892;24.710;2023-09-07T06:47:56;6.93;;;4.43;;
44000;SDS011;29660;42.892;24.710;2023-09-07T06:53:20;11.23;;;5.03;;
44000;SDS011;29660;42.892;24.710;2023-09-07T06:58:42;11.27;;;4.85;;
44000;SDS011;29660;42.892;24.710;2023-09-07T07:04:04;10.05;;;5.25;;
44000;SDS011;29660;42.892;24.710;2023-09-07T07:09:27;13.13;;;4.65;;
44000;SDS011;29660;42.892;24.710;2023-09-07T07:14:50;9.50;;;5.70;;
44000;SDS011;29660;42.892;24.710;2023-09-07T07:20:13;9.55;;;5.35;;
44000;SDS011;29660;42.892;24.710;2023-09-07T07:25:35;10.93;;;5.00;;
44000;SDS011;29660;42.892;24.710;2023-09-07T07:30:59;11.73;;;3.95;;
44000;SDS011;29660;42.892;24.710;2023-09-07T07:36:30;4.65;;;3.72;;
44000;SDS011;29660;42.892;24.710;2023-09-07T07:41:55;5.72;;;3.45;;
44000;SDS011;29660;42.892;24.710;2023-09-07T07:47:18;5.85;;;3.20;;
44000;SDS011;29660;42.892;24.710;2023-09-07T07:52:40;7.72;;;3.30;;
44000;SDS011;29660;42.892;24.710;2023-09-07T07:58:03;5.65;;;3.45;;
44000;SDS011;29660;42.892;24.710;2023-09-07T08:03:26;6.50;;;3.40;;
44000;SDS011;29660;42.892;24.710;2023-09-07T08:08:49;3.90;;;3.30;;
44000;SDS011;29660;42.892;24.710;2023-09-07T08:14:11;4.82;;;3.40;;
44000;SDS011;29660;42.892;24.710;2023-09-07T08:19:34;9.00;;;3.55;;
44000;SDS011;29660;42.892;24.710;2023-09-07T08:24:57;6.00;;;3.50;;
44000;SDS011;29660;42.892;24.710;2023-09-07T08:30:21;8.95;;;4.10;;
44000;SDS011;29660;42.892;24.710;2023-09-07T08:35:51;4.97;;;3.72;;
44000;SDS011;29660;42.892;24.710;2023-09-07T08:41:13;5.67;;;4.60;;
44000;SDS011;29660;42.892;24.710;2023-09-07T08:46:38;9.27;;;5.47;;
44000;SDS011;29660;42.892;24.710;2023-09-07T08:52:03;7.20;;;4.60;;
44000;SDS011;29660;42.892;24.710;2023-09-07T08:57:26;5.95;;;4.35;;
44000;SDS011;29660;42.892;24.710;2023-09-07T09:02:51;14.13;;;5.70;;
44000;SDS011;29660;42.892;24.710;2023-09-07T09:08:17;9.02;;;5.00;;
44000;SDS011;29660;42.892;24.710;2023-09-07T09:13:42;5.70;;;4.30;;
44000;SDS011;29660;42.892;24.710;2023-09-07T09:19:05;5.28;;;3.92;;
44000;SDS011;29660;42.892;24.710;2023-09-07T09:24:27;12.45;;;4.22;;
44000;SDS011;29660;42.892;24.710;2023-09-07T09:29:49;8.27;;;4.43;;
44000;SDS011;29660;42.892;24.710;2023-09-07T09:35:12;8.02;;;4.40;;
44000;SDS011;29660;42.892;24.710;2023-09-07T09:40:38;7.38;;;3.72;;
44000;SDS011;29660;42.892;24.710;2023-09-07T09:46:02;6.97;;;3.78;;
44000;SDS011;29660;42.892;24.710;2023-09-07T09:51:27;9.32;;;3.55;;
44000;SDS011;29660;42.892;24.710;2023-09-07T09:56:50;8.25;;;3.83;;
44000;SDS011;29660;42.892;24.710;2023-09-07T10:02:13;9.15;;;3.40;;
44000;SDS011;29660;42.892;24.710;2023-09-07T10:07:42;5.30;;;3.30;;
44000;SDS011;29660;42.892;24.710;2023-09-07T10:13:12;9.82;;;3.20;;
44000;SDS011;29660;42.892;24.710;2023-09-07T10:18:36;9.45;;;3.90;;
44000;SDS011;29660;42.892;24.710;2023-09-07T10:23:59;12.25;;;3.60;;
44000;SDS011;29660;42.892;24.710;2023-09-07T10:29:21;5.85;;;3.88;;
44000;SDS011;29660;42.892;24.710;2023-09-07T10:34:45;7.22;;;3.35;;
44000;SDS011;29660;42.892;24.710;2023-09-07T10:40:07;6.78;;;3.33;;
44000;SDS011;29660;42.892;24.710;2023-09-07T10:45:33;5.88;;;3.95;;
44000;SDS011;29660;42.892;24.710;2023-09-07T10:50:56;6.55;;;3.50;;
44000;SDS011;29660;42.892;24.710;2023-09-07T10:56:18;7.55;;;3.70;;
44000;SDS011;29660;42.892;24.710;2023-09-07T11:01:41;11.23;;;4.03;;
44000;SDS011;29660;42.892;24.710;2023-09-07T11:07:05;7.68;;;3.80;;
44000;SDS011;29660;42.892;24.710;2023-09-07T11:12:28;7.00;;;3.60;;
44000;SDS011;29660;42.892;24.710;2023-09-07T11:17:50;7.70;;;4.00;;
44000;SDS011;29660;42.892;24.710;2023-09-07T11:23:14;6.93;;;4.00;;
44000;SDS011;29660;42.892;24.710;2023-09-07T11:28:37;6.90;;;3.80;;
44000;SDS011;29660;42.892;24.710;2023-09-07T11:33:59;8.98;;;3.50;;
44000;SDS011;29660;42.892;24.710;2023-09-07T11:39:21;9.75;;;4.20;;
44000;SDS011;29660;42.892;24.710;2023-09-07T11:44:44;6.70;;;3.85;;
44000;SDS011;29660;42.892;24.710;2023-09-07T11:50:06;6.13;;;3.72;;
44000;SDS011;29660;42.892;24.710;2023-09-07T11:55:28;6.93;;;3.97;;
44000;SDS011;29660;42.892;24.710;2023-09-07T12:00:51;6.65;;;3.92;;
44000;SDS011;29660;42.892;24.710;2023-09-07T12:06:13;6.72;;;3.92;;
44000;SDS011;29660;42.892;24.710;2023-09-07T12:11:36;5.68;;;3.60;;
44000;SDS011;29660;42.892;24.710;2023-09-07T12:16:58;9.13;;;3.67;;
44000;SDS011;29660;42.892;24.710;2023-09-07T12:22:20;7.93;;;3.90;;
44000;SDS011;29660;42.892;24.710;2023-09-07T12:27:42;15.15;;;4.25;;
44000;SDS011;29660;42.892;24.710;2023-09-07T12:33:15;12.02;;;3.72;;
44000;SDS011;29660;42.892;24.710;2023-09-07T12:38:37;6.30;;;3.58;;
44000;SDS011;29660;42.892;24.710;2023-09-07T12:43:59;4.90;;;3.85;;
44000;SDS011;29660;42.892;24.710;2023-09-07T12:49:21;4.43;;;3.63;;
44000;SDS011;29660;42.892;24.710;2023-09-07T12:54:44;4.97;;;3.63;;
44000;SDS011;29660;42.892;24.710;2023-09-07T13:00:06;8.05;;;4.05;;
44000;SDS011;29660;42.892;24.710;2023-09-07T13:05:28;8.10;;;4.30;;
44000;SDS011;29660;42.892;24.710;2023-09-07T13:10:51;6.20;;;4.07;;
44000;SDS011;29660;42.892;24.710;2023-09-07T13:16:13;6.03;;;4.10;;
44000;SDS011;29660;42.892;24.710;2023-09-07T13:21:36;10.13;;;4.30;;
44000;SDS011;29660;42.892;24.710;2023-09-07T13:26:59;9.23;;;3.83;;
44000;SDS011;29660;42.892;24.710;2023-09-07T13:32:21;5.60;;;3.75;;
44000;SDS011;29660;42.892;24.710;2023-09-07T13:37:43;8.20;;;4.25;;
44000;SDS011;29660;42.892;24.710;2023-09-07T13:43:05;12.68;;;4.28;;
44000;SDS011;29660;42.892;24.710;2023-09-07T13:48:27;8.45;;;3.85;;
44000;SDS011;29660;42.892;24.710;2023-09-07T13:53:50;7.82;;;3.72;;
44000;SDS011;29660;42.892;24.710;2023-09-07T13:59:12;10.25;;;4.03;;
44000;SDS011;29660;42.892;24.710;2023-09-07T14:04:35;6.32;;;4.20;;
44000;SDS011;29660;42.892;24.710;2023-09-07T14:09:57;7.53;;;4.45;;
44000;SDS011;29660;42.892;24.710;2023-09-07T14:15:19;7.38;;;4.18;;
44000;SDS011;29660;42.892;24.710;2023-09-07T14:20:41;9.63;;;4.32;;
44000;SDS011;29660;42.892;24.710;2023-09-07T14:26:03;5.50;;;3.90;;
44000;SDS011;29660;42.892;24.710;2023-09-07T14:31:26;6.60;;;4.07;;
44000;SDS011;29660;42.892;24.710;2023-09-07T14:36:48;7.85;;;4.07;;
44000;SDS011;29660;42.892;24.710;2023-09-07T14:42:10;9.57;;;3.90;;
44000;SDS011;29660;42.892;24.710;2023-09-07T14:47:35;17.60;;;4.78;;
44000;SDS011;29660;42.892;24.710;2023-09-07T14:52:58;7.68;;;4.20;;
44000;SDS011;29660;42.892;24.710;2023-09-07T14:58:20;4.57;;;3.75;;
44000;SDS011;29660;42.892;24.710;2023-09-07T15:03:42;9.77;;;4.18;;
44000;SDS011;29660;42.892;24.710;2023-09-07T15:09:05;10.95;;;4.68;;
44000;SDS011;29660;42.892;24.710;2023-09-07T15:14:27;8.80;;;4.22;;
44000;SDS011;29660;42.892;24.710;2023-09-07T15:19:50;10.20;;;4.53;;
44000;SDS011;29660;42.892;24.710;2023-09-07T15:25:13;10.43;;;4.65;;
44000;SDS011;29660;42.892;24.710;2023-09-07T15:30:35;11.57;;;5.00;;
44000;SDS011;29660;42.892;24.710;2023-09-07T15:35:57;8.27;;;5.07;;
44000;SDS011;29660;42.892;24.710;2023-09-07T15:41:19;17.45;;;11.88;;
44000;SDS011;29660;42.892;24.710;2023-09-07T15:46:42;10.68;;;5.75;;
44000;SDS011;29660;42.892;24.710;2023-09-07T15:52:04;20.98;;;14.30;;
44000;SDS011;29660;42.892;24.710;2023-09-07T15:57:26;26.27;;;23.65;;
44000;SDS011;29660;42.892;24.710;2023-09-07T16:02:49;11.68;;;10.15;;
44000;SDS011;29660;42.892;24.710;2023-09-07T16:08:11;12.00;;;10.00;;
44000;SDS011;29660;42.892;24.710;2023-09-07T16:13:33;17.00;;;12.98;;
44000;SDS011;29660;42.892;24.710;2023-09-07T16:18:57;15.07;;;12.52;;
44000;SDS011;29660;42.892;24.710;2023-09-07T16:24:19;16.10;;;12.15;;
44000;SDS011;29660;42.892;24.710;2023-09-07T16:29:41;19.17;;;12.10;;
44000;SDS011;29660;42.892;24.710;2023-09-07T16:35:05;22.45;;;15.07;;
44000;SDS011;29660;42.892;24.710;2023-09-07T16:40:28;14.20;;;9.18;;
44000;SDS011;29660;42.892;24.710;2023-09-07T16:51:39;11.35;;;8.60;;
44000;SDS011;29660;42.892;24.710;2023-09-07T16:57:01;17.33;;;14.40;;
44000;SDS011;29660;42.892;24.710;2023-09-07T17:02:23;13.25;;;10.00;;
44000;SDS011;29660;42.892;24.710;2023-09-07T17:07:46;11.00;;;8.30;;
44000;SDS011;29660;42.892;24.710;2023-09-07T17:13:08;14.57;;;9.43;;
44000;SDS011;29660;42.892;24.710;2023-09-07T17:18:30;18.67;;;14.02;;
44000;SDS011;29660;42.892;24.710;2023-09-07T17:23:53;14.20;;;10.73;;
44000;SDS011;29660;42.892;24.710;2023-09-07T17:29:15;19.48;;;6.93;;
44000;SDS011;29660;42.892;24.710;2023-09-07T17:34:39;13.02;;;7.47;;
44000;SDS011;29660;42.892;24.710;2023-09-07T17:40:02;16.00;;;6.25;;
44000;SDS011;29660;42.892;24.710;2023-09-07T17:45:24;12.52;;;10.10;;
44000;SDS011;29660;42.892;24.710;2023-09-07T17:50:47;20.23;;;16.85;;
44000;SDS011;29660;42.892;24.710;2023-09-07T17:56:10;10.65;;;7.93;;
44000;SDS011;29660;42.892;24.710;2023-09-07T18:01:33;10.23;;;8.15;;
44000;SDS011;29660;42.892;24.710;2023-09-07T18:06:56;20.98;;;11.77;;
44000;SDS011;29660;42.892;24.710;2023-09-07T18:12:18;16.63;;;10.18;;
44000;SDS011;29660;42.892;24.710;2023-09-07T18:17:41;12.20;;;8.00;;
44000;SDS011;29660;42.892;24.710;2023-09-07T18:23:03;8.55;;;7.60;;
44000;SDS011;29660;42.892;24.710;2023-09-07T18:28:25;9.13;;;7.25;;
44000;SDS011;29660;42.892;24.710;2023-09-07T18:33:48;9.55;;;7.47;;
44000;SDS011;29660;42.892;24.710;2023-09-07T18:39:11;13.13;;;9.40;;
44000;SDS011;29660;42.892;24.710;2023-09-07T18:44:33;14.65;;;11.98;;
44000;SDS011;29660;42.892;24.710;2023-09-07T18:49:55;14.15;;;11.40;;
44000;SDS011;29660;42.892;24.710;2023-09-07T18:55:17;17.73;;;12.13;;
44000;SDS011;29660;42.892;24.710;2023-09-07T19:00:40;12.43;;;8.90;;
44000;SDS011;29660;42.892;24.710;2023-09-07T19:06:04;10.55;;;7.20;;
44000;SDS011;29660;42.892;24.710;2023-09-07T19:11:26;10.82;;;7.40;;
44000;SDS011;29660;42.892;24.710;2023-09-07T19:16:48;12.43;;;7.38;;
44000;SDS011;29660;42.892;24.710;2023-09-07T19:22:11;11.57;;;7.00;;
44000;SDS011;29660;42.892;24.710;2023-09-07T19:27:33;12.70;;;6.28;;
44000;SDS011;29660;42.892;24.710;2023-09-07T19:32:55;8.95;;;6.57;;
44000;SDS011;29660;42.892;24.710;2023-09-07T19:38:17;10.45;;;6.85;;
44000;SDS011;29660;42.892;24.710;2023-09-07T19:43:42;12.32;;;8.05;;
44000;SDS011;29660;42.892;24.710;2023-09-07T19:49:05;12.52;;;7.88;;
44000;SDS011;29660;42.892;24.710;2023-09-07T19:54:27;15.23;;;8.98;;
44000;SDS011;29660;42.892;24.710;2023-09-07T19:59:49;7.40;;;6.20;;
44000;SDS011;29660;42.892;24.710;2023-09-07T20:05:12;12.10;;;7.55;;
44000;SDS011;29660;42.892;24.710;2023-09-07T20:10:34;12.73;;;6.85;;
44000;SDS011;29660;42.892;24.710;2023-09-07T20:15:56;8.55;;;6.57;;
44000;SDS011;29660;42.892;24.710;2023-09-07T20:21:18;9.18;;;6.63;;
44000;SDS011;29660;42.892;24.710;2023-09-07T20:26:41;10.73;;;7.20;;
44000;SDS011;29660;42.892;24.710;2023-09-07T20:32:03;12.88;;;6.95;;
44000;SDS011;29660;42.892;24.710;2023-09-07T20:37:25;10.05;;;7.60;;
44000;SDS011;29660;42.892;24.710;2023-09-07T20:42:48;13.35;;;7.68;;
44000;SDS011;29660;42.892;24.710;2023-09-07T20:48:10;10.43;;;8.48;;
44000;SDS011;29660;42.892;24.710;2023-09-07T20:53:32;12.27;;;8.40;;
44000;SDS011;29660;42.892;24.710;2023-09-07T20:58:54;13.23;;;9.60;;
44000;SDS011;29660;42.892;24.710;2023-09-07T21:04:16;17.25;;;9.90;;
44000;SDS011;29660;42.892;24.710;2023-09-07T21:09:39;13.90;;;8.48;;
44000;SDS011;29660;42.892;24.710;2023-09-07T21:15:01;12.60;;;7.88;;
44000;SDS011;29660;42.892;24.710;2023-09-07T21:20:24;10.60;;;7.95;;
44000;SDS011;29660;42.892;24.710;2023-09-07T21:25:46;10.77;;;7.93;;
44000;SDS011;29660;42.892;24.710;2023-09-07T21:31:08;9.23;;;7.88;;
44000;SDS011;29660;42.892;24.710;2023-09-07T21:36:32;15.10;;;8.13;;
44000;SDS011;29660;42.892;24.710;2023-09-07T21:41:54;9.63;;;8.50;;
44000;SDS011;29660;42.892;24.710;2023-09-07T21:47:18;12.20;;;8.25;;
44000;SDS011;29660;42.892;24.710;2023-09-07T21:52:41;13.45;;;8.45;;
44000;SDS011;29660;42.892;24.710;2023-09-07T21:58:03;10.32;;;7.88;;
44000;SDS011;29660;42.892;24.710;2023-09-07T22:03:26;9.07;;;7.82;;
44000;SDS011;29660;42.892;24.710;2023-09-07T22:08:49;10.95;;;7.68;;
44000;SDS011;29660;42.892;24.710;2023-09-07T22:14:11;10.63;;;6.95;;
44000;SDS011;29660;42.892;24.710;2023-09-07T22:19:34;8.57;;;6.63;;
44000;SDS011;29660;42.892;24.710;2023-09-07T22:24:56;9.00;;;6.57;;
44000;SDS011;29660;42.892;24.710;2023-09-07T22:30:18;10.30;;;6.60;;
44000;SDS011;29660;42.892;24.710;2023-09-07T22:35:41;8.27;;;6.57;;
44000;SDS011;29660;42.892;24.710;2023-09-07T22:41:03;11.55;;;6.63;;
44000;SDS011;29660;42.892;24.710;2023-09-07T22:46:25;10.80;;;7.15;;
44000;SDS011;29660;42.892;24.710;2023-09-07T22:51:47;10.95;;;7.60;;
44000;SDS011;29660;42.892;24.710;2023-09-07T22:57:10;13.20;;;7.70;;
44000;SDS011;29660;42.892;24.710;2023-09-07T23:02:32;13.43;;;7.72;;
44000;SDS011;29660;42.892;24.710;2023-09-07T23:07:54;10.85;;;7.93;;
44000;SDS011;29660;42.892;24.710;2023-09-07T23:13:17;10.23;;;7.65;;
44000;SDS011;29660;42.892;24.710;2023-09-07T23:18:39;11.00;;;7.60;;
44000;SDS011;29660;42.892;24.710;2023-09-07T23:24:01;9.15;;;7.18;;
44000;SDS011;29660;42.892;24.710;2023-09-07T23:29:23;12.18;;;7.93;;
44000;SDS011;29660;42.892;24.710;2023-09-07T23:34:46;11.27;;;8.88;;
44000;SDS011;29660;42.892;24.710;2023-09-07T23:40:08;10.63;;;6.82;;
44000;SDS011;29660;42.892;24.710;2023-09-07T23:45:32;7.70;;;6.47;;
44000;SDS011;29660;42.892;24.710;2023-09-07T23:50:54;8.02;;;6.15;;
44000;SDS011;29660;42.892;24.710;2023-09-07T23:56:16;12.05;;;7.00;;
